GLO1591 SBJE-SBGR
Flight info
| Callsign | GLO1591 |
|---|---|
| Flight time | 3h 13m |
| Altitude | 38000 |
| Route | ISUPI DCT POVPO DCT POPNO DCT KALUN DCT NANDU DCT ILRUM DCT REINA DCT NISNI UZ38 VUNOX |
| Aircraft | B38M/M-SDE1FGHILORVWXY/HB1 |
Departure
| Time | 2026-05-08 11:19 |
|---|---|
| Airport | Comandante Ariston Pessoa Airport (SBJE) |
Arrival
| Time | 2026-05-08 14:32 |
|---|---|
| Airport | São Paulo/Guarulhos–Governor André Franco Montoro International Airport (SBGR) |
| Time | Latitude | Longitude | Altitude | Speed | Heading |
|---|---|---|---|---|---|
| 2026-05-08 10:52 | -2.90469 | -40.34813 | 98 ft | 0 kts | 153° |
| 2026-05-08 11:07 | -2.90468 | -40.34814 | 98 ft | 1 kts | 153° |
| 2026-05-08 11:08 | -2.90455 | -40.34820 | 98 ft | 2 kts | 154° |
| 2026-05-08 11:08 | -2.90442 | -40.34827 | 98 ft | 2 kts | 153° |
| 2026-05-08 11:08 | -2.90428 | -40.34833 | 98 ft | 1 kts | 173° |
| 2026-05-08 11:08 | -2.90415 | -40.34829 | 98 ft | 2 kts | 222° |
| 2026-05-08 11:09 | -2.90410 | -40.34823 | 98 ft | 0 kts | 248° |
| 2026-05-08 11:09 | -2.90408 | -40.34818 | 98 ft | 0 kts | 243° |
| 2026-05-08 11:10 | -2.90409 | -40.34820 | 98 ft | 1 kts | 243° |
| 2026-05-08 11:11 | -2.90417 | -40.34837 | 98 ft | 3 kts | 243° |
| 2026-05-08 11:11 | -2.90434 | -40.34868 | 98 ft | 6 kts | 242° |
| 2026-05-08 11:11 | -2.90452 | -40.34910 | 98 ft | 4 kts | 265° |
| 2026-05-08 11:11 | -2.90432 | -40.34936 | 98 ft | 5 kts | 330° |
| 2026-05-08 11:12 | -2.90390 | -40.34960 | 98 ft | 8 kts | 316° |
| 2026-05-08 11:12 | -2.90376 | -40.35020 | 98 ft | 10 kts | 266° |
| 2026-05-08 11:12 | -2.90378 | -40.35099 | 98 ft | 12 kts | 269° |
| 2026-05-08 11:12 | -2.90380 | -40.35189 | 98 ft | 13 kts | 265° |
| 2026-05-08 11:13 | -2.90417 | -40.35284 | 98 ft | 15 kts | 242° |
| 2026-05-08 11:13 | -2.90466 | -40.35382 | 98 ft | 15 kts | 243° |
| 2026-05-08 11:13 | -2.90517 | -40.35480 | 98 ft | 15 kts | 243° |
| 2026-05-08 11:13 | -2.90564 | -40.35575 | 98 ft | 15 kts | 244° |
| 2026-05-08 11:14 | -2.90609 | -40.35669 | 98 ft | 15 kts | 243° |
| 2026-05-08 11:14 | -2.90658 | -40.35766 | 98 ft | 15 kts | 243° |
| 2026-05-08 11:14 | -2.90707 | -40.35864 | 98 ft | 15 kts | 244° |
| 2026-05-08 11:14 | -2.90757 | -40.35962 | 98 ft | 15 kts | 244° |
| 2026-05-08 11:15 | -2.90805 | -40.36061 | 98 ft | 16 kts | 244° |
| 2026-05-08 11:15 | -2.90857 | -40.36163 | 98 ft | 16 kts | 243° |
| 2026-05-08 11:15 | -2.90909 | -40.36268 | 98 ft | 17 kts | 243° |
| 2026-05-08 11:15 | -2.90964 | -40.36377 | 98 ft | 16 kts | 244° |
| 2026-05-08 11:16 | -2.91011 | -40.36474 | 98 ft | 14 kts | 239° |
| 2026-05-08 11:16 | -2.91079 | -40.36535 | 98 ft | 12 kts | 211° |
| 2026-05-08 11:16 | -2.91118 | -40.36578 | 98 ft | 6 kts | 276° |
| 2026-05-08 11:16 | -2.91091 | -40.36608 | 98 ft | 5 kts | 333° |
| 2026-05-08 11:17 | -2.91076 | -40.36603 | 98 ft | 2 kts | 57° |
| 2026-05-08 11:17 | -2.91074 | -40.36599 | 98 ft | 0 kts | 63° |
| 2026-05-08 11:18 | -2.91061 | -40.36573 | 98 ft | 25 kts | 63° |
| 2026-05-08 11:19 | -2.90866 | -40.36176 | 98 ft | 99 kts | 63° |
| 2026-05-08 11:19 | -2.90465 | -40.35376 | 100 ft | 158 kts | 65° |
| 2026-05-08 11:19 | -2.89928 | -40.34317 | 417 ft | 183 kts | 65° |
| 2026-05-08 11:19 | -2.89365 | -40.33187 | 1333 ft | 181 kts | 68° |
| 2026-05-08 11:20 | -2.89067 | -40.31955 | 1959 ft | 187 kts | 97° |
| 2026-05-08 11:20 | -2.89508 | -40.30728 | 2356 ft | 200 kts | 126° |
| 2026-05-08 11:20 | -2.90619 | -40.29779 | 2696 ft | 223 kts | 152° |
| 2026-05-08 11:20 | -2.92178 | -40.29291 | 3096 ft | 244 kts | 163° |
| 2026-05-08 11:21 | -2.93869 | -40.28881 | 3641 ft | 254 kts | 161° |
| 2026-05-08 11:21 | -2.95586 | -40.28402 | 4317 ft | 258 kts | 160° |
| 2026-05-08 11:21 | -2.97327 | -40.27887 | 4949 ft | 265 kts | 160° |
| 2026-05-08 11:21 | -2.99093 | -40.27364 | 5662 ft | 268 kts | 160° |
| 2026-05-08 11:22 | -3.00880 | -40.26846 | 6435 ft | 268 kts | 160° |
| 2026-05-08 11:22 | -3.02684 | -40.26326 | 7093 ft | 272 kts | 160° |
| 2026-05-08 11:22 | -3.04498 | -40.25805 | 7757 ft | 275 kts | 161° |
| 2026-05-08 11:22 | -3.06375 | -40.25264 | 8387 ft | 280 kts | 161° |
| 2026-05-08 11:23 | -3.08247 | -40.24724 | 9034 ft | 283 kts | 161° |
| 2026-05-08 11:23 | -3.10155 | -40.24175 | 9674 ft | 287 kts | 161° |
| 2026-05-08 11:23 | -3.12068 | -40.23623 | 10256 ft | 292 kts | 161° |
| 2026-05-08 11:23 | -3.14095 | -40.23037 | 10483 ft | 310 kts | 161° |
| 2026-05-08 11:24 | -3.16233 | -40.22417 | 10599 ft | 331 kts | 161° |
| 2026-05-08 11:24 | -3.18524 | -40.21755 | 10743 ft | 348 kts | 162° |
| 2026-05-08 11:24 | -3.20890 | -40.21074 | 11146 ft | 356 kts | 162° |
| 2026-05-08 11:24 | -3.23285 | -40.20387 | 11628 ft | 361 kts | 162° |
| 2026-05-08 11:25 | -3.25715 | -40.19690 | 12116 ft | 365 kts | 162° |
| 2026-05-08 11:25 | -3.28180 | -40.18982 | 12592 ft | 369 kts | 162° |
| 2026-05-08 11:25 | -3.30656 | -40.18270 | 13064 ft | 372 kts | 162° |
| 2026-05-08 11:25 | -3.33167 | -40.17546 | 13527 ft | 376 kts | 162° |
| 2026-05-08 11:26 | -3.35696 | -40.16817 | 13979 ft | 379 kts | 162° |
| 2026-05-08 11:26 | -3.38251 | -40.16081 | 14442 ft | 382 kts | 163° |
| 2026-05-08 11:26 | -3.40822 | -40.15340 | 14875 ft | 385 kts | 163° |
| 2026-05-08 11:26 | -3.43469 | -40.14584 | 15324 ft | 388 kts | 163° |
| 2026-05-08 11:27 | -3.46089 | -40.13949 | 15732 ft | 392 kts | 168° |
| 2026-05-08 11:27 | -3.48814 | -40.13578 | 16115 ft | 396 kts | 179° |
| 2026-05-08 11:27 | -3.51588 | -40.13929 | 16617 ft | 396 kts | 195° |
| 2026-05-08 11:27 | -3.54218 | -40.14792 | 17054 ft | 398 kts | 201° |
| 2026-05-08 11:28 | -3.56810 | -40.15835 | 17372 ft | 402 kts | 203° |
| 2026-05-08 11:28 | -3.59417 | -40.16900 | 17779 ft | 404 kts | 202° |
| 2026-05-08 11:28 | -3.62054 | -40.17930 | 18129 ft | 408 kts | 201° |
| 2026-05-08 11:28 | -3.64722 | -40.18918 | 18489 ft | 411 kts | 200° |
| 2026-05-08 11:29 | -3.67428 | -40.19881 | 18871 ft | 412 kts | 199° |
| 2026-05-08 11:29 | -3.70164 | -40.20835 | 19200 ft | 416 kts | 199° |
| 2026-05-08 11:29 | -3.72911 | -40.21783 | 19583 ft | 417 kts | 199° |
| 2026-05-08 11:29 | -3.75676 | -40.22738 | 19866 ft | 421 kts | 199° |
| 2026-05-08 11:30 | -3.78419 | -40.23686 | 20249 ft | 422 kts | 199° |
| 2026-05-08 11:30 | -3.81215 | -40.24654 | 20516 ft | 426 kts | 199° |
| 2026-05-08 11:30 | -3.84060 | -40.25641 | 20829 ft | 428 kts | 199° |
| 2026-05-08 11:30 | -3.86882 | -40.26620 | 21142 ft | 431 kts | 199° |
| 2026-05-08 11:31 | -3.89717 | -40.27605 | 21507 ft | 431 kts | 199° |
| 2026-05-08 11:31 | -3.92571 | -40.28597 | 21736 ft | 436 kts | 199° |
| 2026-05-08 11:31 | -3.95478 | -40.29608 | 21999 ft | 439 kts | 199° |
| 2026-05-08 11:31 | -3.98362 | -40.30611 | 22374 ft | 439 kts | 199° |
| 2026-05-08 11:32 | -4.01257 | -40.31617 | 22635 ft | 442 kts | 199° |
| 2026-05-08 11:32 | -4.04160 | -40.32627 | 22938 ft | 444 kts | 199° |
| 2026-05-08 11:32 | -4.07099 | -40.33649 | 23238 ft | 446 kts | 199° |
| 2026-05-08 11:32 | -4.10069 | -40.34682 | 23469 ft | 449 kts | 199° |
| 2026-05-08 11:33 | -4.12989 | -40.35698 | 23866 ft | 447 kts | 199° |
| 2026-05-08 11:33 | -4.15965 | -40.36734 | 24111 ft | 450 kts | 200° |
| 2026-05-08 11:33 | -4.18914 | -40.37760 | 24578 ft | 446 kts | 200° |
| 2026-05-08 11:33 | -4.21833 | -40.38776 | 24815 ft | 449 kts | 200° |
| 2026-05-08 11:34 | -4.24799 | -40.39809 | 25048 ft | 451 kts | 200° |
| 2026-05-08 11:34 | -4.27790 | -40.40850 | 25290 ft | 453 kts | 200° |
| 2026-05-08 11:34 | -4.30764 | -40.41886 | 25542 ft | 454 kts | 200° |
| 2026-05-08 11:34 | -4.33771 | -40.42933 | 25806 ft | 455 kts | 200° |
| 2026-05-08 11:35 | -4.36755 | -40.43972 | 26092 ft | 455 kts | 200° |
| 2026-05-08 11:35 | -4.39778 | -40.45024 | 26315 ft | 457 kts | 200° |
| 2026-05-08 11:35 | -4.42772 | -40.46067 | 26582 ft | 457 kts | 200° |
| 2026-05-08 11:35 | -4.45799 | -40.47121 | 26830 ft | 458 kts | 200° |
| 2026-05-08 11:36 | -4.48810 | -40.48170 | 27105 ft | 458 kts | 200° |
| 2026-05-08 11:36 | -4.51803 | -40.49213 | 27324 ft | 459 kts | 200° |
| 2026-05-08 11:36 | -4.54845 | -40.50272 | 27593 ft | 459 kts | 200° |
| 2026-05-08 11:36 | -4.57880 | -40.51329 | 27791 ft | 461 kts | 201° |
| 2026-05-08 11:37 | -4.60933 | -40.52393 | 28023 ft | 462 kts | 200° |
| 2026-05-08 11:37 | -4.63979 | -40.53455 | 28240 ft | 463 kts | 201° |
| 2026-05-08 11:37 | -4.67031 | -40.54519 | 28461 ft | 464 kts | 200° |
| 2026-05-08 11:37 | -4.70060 | -40.55575 | 28677 ft | 465 kts | 201° |
| 2026-05-08 11:38 | -4.73141 | -40.56649 | 28874 ft | 467 kts | 201° |
| 2026-05-08 11:38 | -4.76227 | -40.57726 | 29051 ft | 469 kts | 200° |
| 2026-05-08 11:38 | -4.79295 | -40.58795 | 29252 ft | 470 kts | 200° |
| 2026-05-08 11:38 | -4.82405 | -40.59880 | 29413 ft | 472 kts | 200° |
| 2026-05-08 11:39 | -4.85524 | -40.60968 | 29652 ft | 473 kts | 201° |
| 2026-05-08 11:39 | -4.88642 | -40.62055 | 29958 ft | 472 kts | 201° |
| 2026-05-08 11:39 | -4.91753 | -40.63139 | 30252 ft | 472 kts | 200° |
| 2026-05-08 11:39 | -4.94832 | -40.64212 | 30539 ft | 472 kts | 201° |
| 2026-05-08 11:40 | -4.97947 | -40.65298 | 30908 ft | 469 kts | 201° |
| 2026-05-08 11:40 | -5.01045 | -40.66378 | 31236 ft | 468 kts | 200° |
| 2026-05-08 11:40 | -5.04127 | -40.67454 | 31556 ft | 468 kts | 201° |
| 2026-05-08 11:40 | -5.07201 | -40.68526 | 31876 ft | 467 kts | 201° |
| 2026-05-08 11:41 | -5.10283 | -40.69602 | 32150 ft | 467 kts | 201° |
| 2026-05-08 11:41 | -5.13349 | -40.70672 | 32434 ft | 466 kts | 200° |
| 2026-05-08 11:41 | -5.16429 | -40.71748 | 32731 ft | 466 kts | 201° |
| 2026-05-08 11:41 | -5.19512 | -40.72825 | 33056 ft | 465 kts | 201° |
| 2026-05-08 11:42 | -5.22543 | -40.73883 | 33408 ft | 463 kts | 201° |
| 2026-05-08 11:42 | -5.25575 | -40.74944 | 33750 ft | 462 kts | 201° |
| 2026-05-08 11:42 | -5.28629 | -40.76011 | 34119 ft | 460 kts | 201° |
| 2026-05-08 11:42 | -5.31643 | -40.77064 | 34512 ft | 457 kts | 201° |
| 2026-05-08 11:43 | -5.34653 | -40.78114 | 34878 ft | 455 kts | 201° |
| 2026-05-08 11:43 | -5.37648 | -40.79159 | 35269 ft | 452 kts | 201° |
| 2026-05-08 11:43 | -5.40589 | -40.80185 | 35602 ft | 450 kts | 201° |
| 2026-05-08 11:43 | -5.43548 | -40.81218 | 35928 ft | 448 kts | 201° |
| 2026-05-08 11:44 | -5.46518 | -40.82256 | 36199 ft | 448 kts | 201° |
| 2026-05-08 11:44 | -5.49474 | -40.83289 | 36432 ft | 447 kts | 201° |
| 2026-05-08 11:44 | -5.52411 | -40.84315 | 36720 ft | 446 kts | 201° |
| 2026-05-08 11:44 | -5.55307 | -40.85327 | 36998 ft | 444 kts | 201° |
| 2026-05-08 11:45 | -5.58262 | -40.86360 | 37253 ft | 443 kts | 201° |
| 2026-05-08 11:45 | -5.61167 | -40.87376 | 37541 ft | 441 kts | 201° |
| 2026-05-08 11:45 | -5.64058 | -40.88386 | 37737 ft | 441 kts | 201° |
| 2026-05-08 11:45 | -5.66966 | -40.89404 | 37952 ft | 440 kts | 201° |
| 2026-05-08 11:46 | -5.69849 | -40.90412 | 38075 ft | 441 kts | 201° |
| 2026-05-08 11:46 | -5.75699 | -40.92459 | 38085 ft | 444 kts | 201° |
| 2026-05-08 11:47 | -5.81509 | -40.94491 | 38097 ft | 440 kts | 201° |
| 2026-05-08 11:47 | -5.87283 | -40.96511 | 38102 ft | 439 kts | 201° |
| 2026-05-08 11:48 | -5.93093 | -40.98546 | 38099 ft | 442 kts | 201° |
| 2026-05-08 11:48 | -5.98945 | -41.00596 | 38098 ft | 443 kts | 201° |
| 2026-05-08 11:49 | -6.04740 | -41.02624 | 38098 ft | 440 kts | 201° |
| 2026-05-08 11:49 | -6.10509 | -41.04644 | 38092 ft | 439 kts | 201° |
| 2026-05-08 11:50 | -6.16315 | -41.06677 | 38091 ft | 440 kts | 201° |
| 2026-05-08 11:50 | -6.22086 | -41.08700 | 38085 ft | 440 kts | 201° |
| 2026-05-08 11:51 | -6.27903 | -41.10739 | 38081 ft | 440 kts | 201° |
| 2026-05-08 11:51 | -6.33679 | -41.12764 | 38077 ft | 440 kts | 201° |
| 2026-05-08 11:52 | -6.39481 | -41.14798 | 38079 ft | 440 kts | 201° |
| 2026-05-08 11:52 | -6.45288 | -41.16835 | 38072 ft | 440 kts | 201° |
| 2026-05-08 11:53 | -6.51074 | -41.18864 | 38072 ft | 440 kts | 201° |
| 2026-05-08 11:53 | -6.56867 | -41.20897 | 38071 ft | 440 kts | 201° |
| 2026-05-08 11:54 | -6.62653 | -41.22927 | 38072 ft | 440 kts | 201° |
| 2026-05-08 11:54 | -6.68431 | -41.24956 | 38072 ft | 439 kts | 201° |
| 2026-05-08 11:55 | -6.74232 | -41.26993 | 38074 ft | 440 kts | 201° |
| 2026-05-08 11:55 | -6.80048 | -41.29036 | 38071 ft | 439 kts | 201° |
| 2026-05-08 11:56 | -6.85802 | -41.31056 | 38059 ft | 439 kts | 201° |
| 2026-05-08 11:56 | -6.91575 | -41.33084 | 38047 ft | 439 kts | 201° |
| 2026-05-08 11:57 | -6.97358 | -41.35118 | 38037 ft | 441 kts | 201° |
| 2026-05-08 11:57 | -7.03195 | -41.37171 | 38036 ft | 440 kts | 201° |
| 2026-05-08 11:58 | -7.08973 | -41.39202 | 38036 ft | 439 kts | 201° |
| 2026-05-08 11:58 | -7.14753 | -41.41235 | 38036 ft | 438 kts | 201° |
| 2026-05-08 11:59 | -7.23391 | -41.44274 | 38037 ft | 437 kts | 201° |
| 2026-05-08 11:59 | -7.29158 | -41.46305 | 38037 ft | 437 kts | 201° |
| 2026-05-08 12:00 | -7.34886 | -41.48322 | 38037 ft | 437 kts | 201° |
| 2026-05-08 12:00 | -7.40648 | -41.50352 | 38038 ft | 437 kts | 201° |
| 2026-05-08 12:01 | -7.46426 | -41.52387 | 38044 ft | 438 kts | 201° |
| 2026-05-08 12:01 | -7.52155 | -41.54406 | 38057 ft | 437 kts | 201° |
| 2026-05-08 12:02 | -7.57910 | -41.56433 | 38059 ft | 435 kts | 201° |
| 2026-05-08 12:02 | -7.63635 | -41.58452 | 38063 ft | 436 kts | 201° |
| 2026-05-08 12:03 | -7.69384 | -41.60480 | 38065 ft | 436 kts | 201° |
| 2026-05-08 12:03 | -7.75119 | -41.62504 | 38066 ft | 436 kts | 201° |
| 2026-05-08 12:04 | -7.80847 | -41.64525 | 38066 ft | 436 kts | 201° |
| 2026-05-08 12:04 | -7.86580 | -41.66548 | 38071 ft | 435 kts | 201° |
| 2026-05-08 12:05 | -7.92276 | -41.68560 | 38070 ft | 435 kts | 201° |
| 2026-05-08 12:05 | -7.98013 | -41.70586 | 38073 ft | 437 kts | 201° |
| 2026-05-08 12:06 | -8.03785 | -41.72625 | 38080 ft | 436 kts | 201° |
| 2026-05-08 12:06 | -8.09519 | -41.74651 | 38081 ft | 435 kts | 201° |
| 2026-05-08 12:07 | -8.15220 | -41.76666 | 38077 ft | 435 kts | 201° |
| 2026-05-08 12:07 | -8.20986 | -41.78705 | 38069 ft | 436 kts | 201° |
| 2026-05-08 12:08 | -8.26702 | -41.80727 | 38065 ft | 437 kts | 201° |
| 2026-05-08 12:08 | -8.32460 | -41.82766 | 38065 ft | 436 kts | 201° |
| 2026-05-08 12:09 | -8.38201 | -41.84797 | 38064 ft | 436 kts | 201° |
| 2026-05-08 12:09 | -8.43916 | -41.86821 | 38065 ft | 436 kts | 201° |
| 2026-05-08 12:10 | -8.49682 | -41.88863 | 38064 ft | 438 kts | 201° |
| 2026-05-08 12:10 | -8.55457 | -41.90909 | 38064 ft | 437 kts | 201° |
| 2026-05-08 12:11 | -8.61175 | -41.92934 | 38062 ft | 436 kts | 201° |
| 2026-05-08 12:11 | -8.66889 | -41.94960 | 38063 ft | 435 kts | 201° |
| 2026-05-08 12:12 | -8.72613 | -41.96989 | 38058 ft | 435 kts | 201° |
| 2026-05-08 12:12 | -8.78373 | -41.99033 | 38054 ft | 436 kts | 201° |
| 2026-05-08 12:13 | -8.84119 | -42.01073 | 38054 ft | 436 kts | 201° |
| 2026-05-08 12:13 | -8.89821 | -42.03096 | 38056 ft | 436 kts | 201° |
| 2026-05-08 12:14 | -8.95558 | -42.05134 | 38055 ft | 436 kts | 201° |
| 2026-05-08 12:14 | -9.01307 | -42.07176 | 38059 ft | 436 kts | 201° |
| 2026-05-08 12:15 | -9.07028 | -42.09209 | 38068 ft | 436 kts | 201° |
| 2026-05-08 12:15 | -9.12778 | -42.11252 | 38082 ft | 434 kts | 201° |
| 2026-05-08 12:16 | -9.18483 | -42.13280 | 38089 ft | 433 kts | 201° |
| 2026-05-08 12:16 | -9.24165 | -42.15301 | 38093 ft | 433 kts | 201° |
| 2026-05-08 12:17 | -9.29858 | -42.17326 | 38096 ft | 433 kts | 201° |
| 2026-05-08 12:17 | -9.35557 | -42.19355 | 38096 ft | 433 kts | 201° |
| 2026-05-08 12:18 | -9.41268 | -42.21388 | 38094 ft | 433 kts | 201° |
| 2026-05-08 12:18 | -9.46990 | -42.23427 | 38094 ft | 434 kts | 201° |
| 2026-05-08 12:19 | -9.52688 | -42.25457 | 38096 ft | 433 kts | 201° |
| 2026-05-08 12:19 | -9.58347 | -42.27474 | 38097 ft | 431 kts | 201° |
| 2026-05-08 12:20 | -9.64013 | -42.29494 | 38095 ft | 431 kts | 201° |
| 2026-05-08 12:20 | -9.69681 | -42.31515 | 38097 ft | 431 kts | 201° |
| 2026-05-08 12:21 | -9.75352 | -42.33539 | 38098 ft | 431 kts | 201° |
| 2026-05-08 12:21 | -9.81021 | -42.35562 | 38097 ft | 432 kts | 201° |
| 2026-05-08 12:22 | -9.86710 | -42.37593 | 38098 ft | 431 kts | 201° |
| 2026-05-08 12:22 | -9.92359 | -42.39611 | 38097 ft | 430 kts | 201° |
| 2026-05-08 12:23 | -9.98015 | -42.41632 | 38097 ft | 430 kts | 201° |
| 2026-05-08 12:23 | -10.03668 | -42.43652 | 38097 ft | 430 kts | 201° |
| 2026-05-08 12:24 | -10.09319 | -42.45673 | 38099 ft | 430 kts | 201° |
| 2026-05-08 12:24 | -10.14981 | -42.47699 | 38095 ft | 429 kts | 201° |
| 2026-05-08 12:25 | -10.20599 | -42.49709 | 38092 ft | 430 kts | 201° |
| 2026-05-08 12:25 | -10.26284 | -42.51745 | 38095 ft | 430 kts | 201° |
| 2026-05-08 12:26 | -10.31909 | -42.53759 | 38100 ft | 430 kts | 201° |
| 2026-05-08 12:26 | -10.37589 | -42.55794 | 38103 ft | 430 kts | 201° |
| 2026-05-08 12:27 | -10.43217 | -42.57811 | 38105 ft | 430 kts | 201° |
| 2026-05-08 12:27 | -10.48855 | -42.59832 | 38102 ft | 429 kts | 201° |
| 2026-05-08 12:28 | -10.54526 | -42.61866 | 38104 ft | 430 kts | 201° |
| 2026-05-08 12:28 | -10.60178 | -42.63894 | 38104 ft | 430 kts | 201° |
| 2026-05-08 12:29 | -10.65821 | -42.65919 | 38103 ft | 429 kts | 201° |
| 2026-05-08 12:29 | -10.71423 | -42.67931 | 38102 ft | 428 kts | 201° |
| 2026-05-08 12:30 | -10.77082 | -42.69964 | 38105 ft | 428 kts | 201° |
| 2026-05-08 12:30 | -10.82692 | -42.71979 | 38105 ft | 428 kts | 201° |
| 2026-05-08 12:31 | -10.88312 | -42.74000 | 38101 ft | 429 kts | 201° |
| 2026-05-08 12:31 | -10.93933 | -42.76022 | 38102 ft | 428 kts | 201° |
| 2026-05-08 12:32 | -10.99549 | -42.78042 | 38102 ft | 427 kts | 201° |
| 2026-05-08 12:32 | -11.05159 | -42.80061 | 38117 ft | 427 kts | 201° |
| 2026-05-08 12:33 | -11.10792 | -42.82090 | 38124 ft | 427 kts | 201° |
| 2026-05-08 12:33 | -11.16380 | -42.84103 | 38129 ft | 427 kts | 201° |
| 2026-05-08 12:34 | -11.21991 | -42.86125 | 38129 ft | 427 kts | 201° |
| 2026-05-08 12:34 | -11.27630 | -42.88157 | 38127 ft | 427 kts | 201° |
| 2026-05-08 12:35 | -11.33221 | -42.90174 | 38130 ft | 426 kts | 201° |
| 2026-05-08 12:35 | -11.38837 | -42.92201 | 38123 ft | 427 kts | 201° |
| 2026-05-08 12:36 | -11.44416 | -42.94215 | 38113 ft | 425 kts | 201° |
| 2026-05-08 12:36 | -11.50000 | -42.96231 | 38108 ft | 425 kts | 201° |
| 2026-05-08 12:37 | -11.55591 | -42.98251 | 38101 ft | 426 kts | 201° |
| 2026-05-08 12:37 | -11.61214 | -43.00283 | 38106 ft | 426 kts | 201° |
| 2026-05-08 12:38 | -11.66797 | -43.02300 | 38100 ft | 424 kts | 201° |
| 2026-05-08 12:38 | -11.72365 | -43.04314 | 38102 ft | 425 kts | 201° |
| 2026-05-08 12:39 | -11.77957 | -43.06338 | 38100 ft | 427 kts | 201° |
| 2026-05-08 12:39 | -11.83561 | -43.08368 | 38101 ft | 426 kts | 201° |
| 2026-05-08 12:40 | -11.89160 | -43.10397 | 38102 ft | 424 kts | 201° |
| 2026-05-08 12:40 | -11.94727 | -43.12415 | 38098 ft | 424 kts | 200° |
| 2026-05-08 12:41 | -12.00281 | -43.14428 | 38100 ft | 425 kts | 200° |
| 2026-05-08 12:41 | -12.05870 | -43.16454 | 38106 ft | 425 kts | 201° |
| 2026-05-08 12:42 | -12.11430 | -43.18472 | 38106 ft | 425 kts | 201° |
| 2026-05-08 12:42 | -12.17009 | -43.20497 | 38107 ft | 425 kts | 201° |
| 2026-05-08 12:43 | -12.22606 | -43.22531 | 38107 ft | 425 kts | 201° |
| 2026-05-08 12:43 | -12.28211 | -43.24567 | 38101 ft | 426 kts | 201° |
| 2026-05-08 12:44 | -12.33804 | -43.26599 | 38101 ft | 426 kts | 201° |
| 2026-05-08 12:44 | -12.39407 | -43.28637 | 38102 ft | 425 kts | 200° |
| 2026-05-08 12:45 | -12.44962 | -43.30658 | 38103 ft | 424 kts | 201° |
| 2026-05-08 12:45 | -12.50536 | -43.32686 | 38100 ft | 424 kts | 201° |
| 2026-05-08 12:46 | -12.56105 | -43.34713 | 38103 ft | 424 kts | 201° |
| 2026-05-08 12:46 | -12.61676 | -43.36744 | 38100 ft | 424 kts | 201° |
| 2026-05-08 12:47 | -12.67250 | -43.38775 | 38102 ft | 424 kts | 201° |
| 2026-05-08 12:47 | -12.72829 | -43.40809 | 38100 ft | 424 kts | 201° |
| 2026-05-08 12:48 | -12.78373 | -43.42832 | 38101 ft | 423 kts | 201° |
| 2026-05-08 12:48 | -12.83936 | -43.44862 | 38101 ft | 424 kts | 201° |
| 2026-05-08 12:49 | -12.89510 | -43.46898 | 38104 ft | 425 kts | 201° |
| 2026-05-08 12:49 | -12.95103 | -43.48941 | 38102 ft | 423 kts | 201° |
| 2026-05-08 12:50 | -13.00653 | -43.50969 | 38102 ft | 423 kts | 201° |
| 2026-05-08 12:50 | -13.06200 | -43.52997 | 38103 ft | 422 kts | 201° |
| 2026-05-08 12:51 | -13.14517 | -43.56041 | 38101 ft | 423 kts | 201° |
| 2026-05-08 12:52 | -13.20144 | -43.58102 | 38101 ft | 422 kts | 201° |
| 2026-05-08 12:52 | -13.28449 | -43.61144 | 38103 ft | 422 kts | 201° |
| 2026-05-08 12:53 | -13.34009 | -43.63182 | 38105 ft | 421 kts | 201° |
| 2026-05-08 12:53 | -13.39555 | -43.65217 | 38107 ft | 421 kts | 201° |
| 2026-05-08 12:54 | -13.45079 | -43.67244 | 38109 ft | 421 kts | 201° |
| 2026-05-08 12:54 | -13.50596 | -43.69268 | 38114 ft | 420 kts | 201° |
| 2026-05-08 12:55 | -13.56086 | -43.71285 | 38113 ft | 418 kts | 201° |
| 2026-05-08 12:55 | -13.61587 | -43.73305 | 38115 ft | 419 kts | 201° |
| 2026-05-08 12:56 | -13.67080 | -43.75325 | 38118 ft | 420 kts | 201° |
| 2026-05-08 12:56 | -13.72578 | -43.77349 | 38119 ft | 420 kts | 201° |
| 2026-05-08 12:57 | -13.78097 | -43.79379 | 38116 ft | 420 kts | 201° |
| 2026-05-08 12:57 | -13.83605 | -43.81406 | 38117 ft | 418 kts | 201° |
| 2026-05-08 12:58 | -13.89077 | -43.83422 | 38120 ft | 418 kts | 201° |
| 2026-05-08 12:58 | -13.94567 | -43.85445 | 38113 ft | 419 kts | 201° |
| 2026-05-08 12:59 | -14.00066 | -43.87472 | 38114 ft | 417 kts | 201° |
| 2026-05-08 12:59 | -14.05511 | -43.89481 | 38116 ft | 415 kts | 201° |
| 2026-05-08 13:00 | -14.10937 | -43.91484 | 38116 ft | 415 kts | 201° |
| 2026-05-08 13:00 | -14.16398 | -43.93502 | 38118 ft | 416 kts | 201° |
| 2026-05-08 13:01 | -14.21863 | -43.95521 | 38118 ft | 418 kts | 201° |
| 2026-05-08 13:01 | -14.27332 | -43.97542 | 38119 ft | 415 kts | 201° |
| 2026-05-08 13:02 | -14.32775 | -43.99555 | 38117 ft | 413 kts | 201° |
| 2026-05-08 13:02 | -14.38197 | -44.01562 | 38123 ft | 413 kts | 201° |
| 2026-05-08 13:03 | -14.43587 | -44.03558 | 38120 ft | 414 kts | 201° |
| 2026-05-08 13:03 | -14.49050 | -44.05581 | 38123 ft | 413 kts | 201° |
| 2026-05-08 13:04 | -14.54429 | -44.07574 | 38122 ft | 412 kts | 201° |
| 2026-05-08 13:04 | -14.59835 | -44.09583 | 38125 ft | 410 kts | 201° |
| 2026-05-08 13:05 | -14.65234 | -44.11588 | 38124 ft | 411 kts | 201° |
| 2026-05-08 13:05 | -14.70614 | -44.13583 | 38122 ft | 411 kts | 201° |
| 2026-05-08 13:06 | -14.75984 | -44.15573 | 38129 ft | 410 kts | 201° |
| 2026-05-08 13:06 | -14.81383 | -44.17577 | 38129 ft | 411 kts | 201° |
| 2026-05-08 13:07 | -14.86759 | -44.19577 | 38136 ft | 409 kts | 201° |
| 2026-05-08 13:07 | -14.92116 | -44.21574 | 38142 ft | 408 kts | 201° |
| 2026-05-08 13:08 | -14.97442 | -44.23556 | 38145 ft | 409 kts | 201° |
| 2026-05-08 13:08 | -15.02790 | -44.25546 | 38148 ft | 408 kts | 201° |
| 2026-05-08 13:09 | -15.08138 | -44.27538 | 38150 ft | 407 kts | 201° |
| 2026-05-08 13:09 | -15.13500 | -44.29536 | 38139 ft | 408 kts | 201° |
| 2026-05-08 13:10 | -15.18861 | -44.31535 | 38140 ft | 408 kts | 201° |
| 2026-05-08 13:10 | -15.24183 | -44.33525 | 38138 ft | 408 kts | 202° |
| 2026-05-08 13:11 | -15.29549 | -44.35561 | 38141 ft | 408 kts | 202° |
| 2026-05-08 13:11 | -15.34885 | -44.37598 | 38140 ft | 408 kts | 202° |
| 2026-05-08 13:12 | -15.40221 | -44.39633 | 38138 ft | 408 kts | 202° |
| 2026-05-08 13:12 | -15.45539 | -44.41658 | 38140 ft | 408 kts | 202° |
| 2026-05-08 13:13 | -15.50882 | -44.43693 | 38139 ft | 408 kts | 202° |
| 2026-05-08 13:13 | -15.56207 | -44.45723 | 38138 ft | 407 kts | 202° |
| 2026-05-08 13:14 | -15.61525 | -44.47752 | 38145 ft | 407 kts | 202° |
| 2026-05-08 13:14 | -15.66820 | -44.49772 | 38144 ft | 407 kts | 202° |
| 2026-05-08 13:15 | -15.72187 | -44.51821 | 38144 ft | 409 kts | 202° |
| 2026-05-08 13:15 | -15.77500 | -44.53850 | 38140 ft | 409 kts | 202° |
| 2026-05-08 13:16 | -15.82850 | -44.55894 | 38141 ft | 408 kts | 202° |
| 2026-05-08 13:16 | -15.88172 | -44.57929 | 38139 ft | 407 kts | 202° |
| 2026-05-08 13:17 | -15.93517 | -44.59973 | 38144 ft | 408 kts | 202° |
| 2026-05-08 13:17 | -15.98837 | -44.62010 | 38148 ft | 408 kts | 202° |
| 2026-05-08 13:18 | -16.04171 | -44.64053 | 38146 ft | 407 kts | 202° |
| 2026-05-08 13:18 | -16.09492 | -44.66095 | 38148 ft | 405 kts | 202° |
| 2026-05-08 13:19 | -16.14791 | -44.68127 | 38152 ft | 406 kts | 202° |
| 2026-05-08 13:19 | -16.20092 | -44.70161 | 38151 ft | 406 kts | 202° |
| 2026-05-08 13:20 | -16.25394 | -44.72197 | 38151 ft | 406 kts | 203° |
| 2026-05-08 13:20 | -16.30689 | -44.74232 | 38149 ft | 408 kts | 203° |
| 2026-05-08 13:21 | -16.36049 | -44.76292 | 38151 ft | 408 kts | 202° |
| 2026-05-08 13:21 | -16.41361 | -44.78334 | 38147 ft | 406 kts | 203° |
| 2026-05-08 13:22 | -16.46652 | -44.80368 | 38151 ft | 406 kts | 203° |
| 2026-05-08 13:22 | -16.51969 | -44.82413 | 38150 ft | 407 kts | 203° |
| 2026-05-08 13:23 | -16.57298 | -44.84467 | 38148 ft | 407 kts | 203° |
| 2026-05-08 13:23 | -16.62602 | -44.86510 | 38151 ft | 405 kts | 203° |
| 2026-05-08 13:24 | -16.67889 | -44.88550 | 38146 ft | 406 kts | 203° |
| 2026-05-08 13:24 | -16.73215 | -44.90608 | 38152 ft | 406 kts | 203° |
| 2026-05-08 13:25 | -16.78488 | -44.92646 | 38146 ft | 405 kts | 203° |
| 2026-05-08 13:25 | -16.83778 | -44.94691 | 38154 ft | 406 kts | 203° |
| 2026-05-08 13:26 | -16.89065 | -44.96737 | 38152 ft | 405 kts | 203° |
| 2026-05-08 13:26 | -16.94385 | -44.98793 | 38155 ft | 405 kts | 203° |
| 2026-05-08 13:27 | -16.99677 | -45.00841 | 38162 ft | 406 kts | 203° |
| 2026-05-08 13:27 | -17.04977 | -45.02892 | 38159 ft | 405 kts | 203° |
| 2026-05-08 13:28 | -17.10251 | -45.04936 | 38157 ft | 406 kts | 204° |
| 2026-05-08 13:28 | -17.15556 | -45.06995 | 38157 ft | 406 kts | 204° |
| 2026-05-08 13:29 | -17.20874 | -45.09064 | 38161 ft | 405 kts | 203° |
| 2026-05-08 13:29 | -17.26152 | -45.11114 | 38160 ft | 405 kts | 203° |
| 2026-05-08 13:30 | -17.31443 | -45.13168 | 38159 ft | 406 kts | 204° |
| 2026-05-08 13:30 | -17.36748 | -45.15226 | 38165 ft | 407 kts | 203° |
| 2026-05-08 13:31 | -17.42088 | -45.17301 | 38162 ft | 408 kts | 204° |
| 2026-05-08 13:31 | -17.47401 | -45.19368 | 38161 ft | 408 kts | 204° |
| 2026-05-08 13:32 | -17.52733 | -45.21444 | 38166 ft | 407 kts | 204° |
| 2026-05-08 13:32 | -17.58051 | -45.23516 | 38170 ft | 406 kts | 203° |
| 2026-05-08 13:33 | -17.63367 | -45.25591 | 38172 ft | 409 kts | 204° |
| 2026-05-08 13:33 | -17.68726 | -45.27683 | 38172 ft | 410 kts | 203° |
| 2026-05-08 13:34 | -17.74069 | -45.29768 | 38173 ft | 408 kts | 204° |
| 2026-05-08 13:34 | -17.79374 | -45.31841 | 38174 ft | 408 kts | 204° |
| 2026-05-08 13:35 | -17.84730 | -45.33935 | 38168 ft | 409 kts | 204° |
| 2026-05-08 13:35 | -17.90039 | -45.36012 | 38168 ft | 408 kts | 204° |
| 2026-05-08 13:36 | -17.95388 | -45.38105 | 38171 ft | 409 kts | 204° |
| 2026-05-08 13:36 | -18.00713 | -45.40190 | 38167 ft | 410 kts | 204° |
| 2026-05-08 13:37 | -18.06080 | -45.42295 | 38166 ft | 409 kts | 204° |
| 2026-05-08 13:37 | -18.11389 | -45.44376 | 38172 ft | 408 kts | 204° |
| 2026-05-08 13:38 | -18.16747 | -45.46480 | 38174 ft | 411 kts | 204° |
| 2026-05-08 13:38 | -18.22098 | -45.48582 | 38172 ft | 412 kts | 204° |
| 2026-05-08 13:39 | -18.27501 | -45.50705 | 38176 ft | 411 kts | 204° |
| 2026-05-08 13:39 | -18.32841 | -45.52805 | 38169 ft | 410 kts | 204° |
| 2026-05-08 13:40 | -18.38182 | -45.54907 | 38172 ft | 411 kts | 204° |
| 2026-05-08 13:40 | -18.43538 | -45.57039 | 38174 ft | 411 kts | 206° |
| 2026-05-08 13:41 | -18.48705 | -45.59637 | 38177 ft | 410 kts | 211° |
| 2026-05-08 13:41 | -18.53693 | -45.62544 | 38178 ft | 408 kts | 212° |
| 2026-05-08 13:42 | -18.58681 | -45.65454 | 38182 ft | 408 kts | 212° |
| 2026-05-08 13:42 | -18.63669 | -45.68312 | 38186 ft | 409 kts | 211° |
| 2026-05-08 13:43 | -18.68676 | -45.71152 | 38190 ft | 408 kts | 211° |
| 2026-05-08 13:43 | -18.73694 | -45.73993 | 38188 ft | 408 kts | 211° |
| 2026-05-08 13:44 | -18.78695 | -45.76825 | 38188 ft | 408 kts | 211° |
| 2026-05-08 13:44 | -18.83707 | -45.79665 | 38190 ft | 409 kts | 211° |
| 2026-05-08 13:45 | -18.88714 | -45.82502 | 38187 ft | 409 kts | 212° |
| 2026-05-08 13:45 | -18.93753 | -45.85361 | 38190 ft | 409 kts | 212° |
| 2026-05-08 13:46 | -18.98760 | -45.88205 | 38192 ft | 409 kts | 212° |
| 2026-05-08 13:46 | -19.03753 | -45.91040 | 38197 ft | 408 kts | 212° |
| 2026-05-08 13:47 | -19.08781 | -45.93899 | 38197 ft | 408 kts | 212° |
| 2026-05-08 13:47 | -19.13769 | -45.96736 | 38194 ft | 409 kts | 212° |
| 2026-05-08 13:48 | -19.18788 | -45.99593 | 38200 ft | 409 kts | 212° |
| 2026-05-08 13:48 | -19.23805 | -46.02451 | 38196 ft | 410 kts | 212° |
| 2026-05-08 13:49 | -19.28849 | -46.05327 | 38196 ft | 410 kts | 211° |
| 2026-05-08 13:49 | -19.33864 | -46.08188 | 38195 ft | 411 kts | 212° |
| 2026-05-08 13:50 | -19.38898 | -46.11061 | 38195 ft | 411 kts | 212° |
| 2026-05-08 13:50 | -19.43911 | -46.13924 | 38196 ft | 410 kts | 212° |
| 2026-05-08 13:51 | -19.48961 | -46.16810 | 38198 ft | 410 kts | 212° |
| 2026-05-08 13:51 | -19.53985 | -46.19685 | 38193 ft | 411 kts | 212° |
| 2026-05-08 13:52 | -19.58993 | -46.22553 | 38196 ft | 410 kts | 212° |
| 2026-05-08 13:52 | -19.64025 | -46.25435 | 38194 ft | 411 kts | 212° |
| 2026-05-08 13:53 | -19.69158 | -46.28217 | 38200 ft | 414 kts | 206° |
| 2026-05-08 13:53 | -19.74777 | -46.29598 | 38196 ft | 426 kts | 186° |
| 2026-05-08 13:54 | -19.80754 | -46.28766 | 38197 ft | 437 kts | 169° |
| 2026-05-08 13:54 | -19.86544 | -46.26618 | 38192 ft | 444 kts | 164° |
| 2026-05-08 13:55 | -19.92318 | -46.24227 | 38192 ft | 447 kts | 164° |
| 2026-05-08 13:56 | -20.00975 | -46.20656 | 38185 ft | 442 kts | 164° |
| 2026-05-08 13:56 | -20.06760 | -46.18292 | 38185 ft | 443 kts | 164° |
| 2026-05-08 13:57 | -20.12498 | -46.15952 | 38188 ft | 444 kts | 164° |
| 2026-05-08 13:57 | -20.18289 | -46.13586 | 38182 ft | 444 kts | 164° |
| 2026-05-08 13:58 | -20.24033 | -46.11237 | 38180 ft | 442 kts | 164° |
| 2026-05-08 13:58 | -20.29815 | -46.08872 | 38181 ft | 444 kts | 164° |
| 2026-05-08 13:59 | -20.35600 | -46.06508 | 38180 ft | 447 kts | 164° |
| 2026-05-08 13:59 | -20.41392 | -46.04136 | 38183 ft | 447 kts | 163° |
| 2026-05-08 14:00 | -20.47185 | -46.01761 | 38179 ft | 447 kts | 164° |
| 2026-05-08 14:00 | -20.52987 | -45.99379 | 38180 ft | 445 kts | 164° |
| 2026-05-08 14:01 | -20.58789 | -45.96996 | 38182 ft | 446 kts | 163° |
| 2026-05-08 14:01 | -20.64576 | -45.94619 | 38180 ft | 447 kts | 163° |
| 2026-05-08 14:02 | -20.70412 | -45.92218 | 38175 ft | 447 kts | 163° |
| 2026-05-08 14:02 | -20.76198 | -45.89835 | 38178 ft | 447 kts | 163° |
| 2026-05-08 14:03 | -20.82008 | -45.87446 | 38181 ft | 445 kts | 165° |
| 2026-05-08 14:03 | -20.87913 | -45.85773 | 38183 ft | 436 kts | 180° |
| 2026-05-08 14:03 | -20.90944 | -45.85826 | 38187 ft | 431 kts | 192° |
| 2026-05-08 14:04 | -20.93912 | -45.86392 | 38185 ft | 429 kts | 197° |
| 2026-05-08 14:04 | -20.99696 | -45.87961 | 38182 ft | 429 kts | 199° |
| 2026-05-08 14:05 | -21.05482 | -45.89535 | 38187 ft | 428 kts | 198° |
| 2026-05-08 14:05 | -21.11275 | -45.91029 | 38184 ft | 428 kts | 197° |
| 2026-05-08 14:06 | -21.17071 | -45.92489 | 38179 ft | 428 kts | 197° |
| 2026-05-08 14:06 | -21.22849 | -45.93936 | 38185 ft | 429 kts | 197° |
| 2026-05-08 14:07 | -21.28693 | -45.95396 | 38186 ft | 429 kts | 197° |
| 2026-05-08 14:07 | -21.34497 | -45.96846 | 38189 ft | 429 kts | 197° |
| 2026-05-08 14:08 | -21.40337 | -45.98305 | 38188 ft | 430 kts | 197° |
| 2026-05-08 14:08 | -21.46145 | -45.99758 | 38183 ft | 430 kts | 197° |
| 2026-05-08 14:09 | -21.52000 | -46.01224 | 38127 ft | 429 kts | 197° |
| 2026-05-08 14:09 | -21.54874 | -46.01942 | 37844 ft | 423 kts | 197° |
| 2026-05-08 14:09 | -21.57733 | -46.02655 | 37414 ft | 418 kts | 197° |
| 2026-05-08 14:09 | -21.60549 | -46.03360 | 36867 ft | 421 kts | 197° |
| 2026-05-08 14:10 | -21.63429 | -46.04083 | 36241 ft | 420 kts | 197° |
| 2026-05-08 14:10 | -21.66283 | -46.04800 | 35560 ft | 422 kts | 197° |
| 2026-05-08 14:10 | -21.69141 | -46.05519 | 34836 ft | 423 kts | 197° |
| 2026-05-08 14:10 | -21.71994 | -46.06238 | 34089 ft | 425 kts | 197° |
| 2026-05-08 14:11 | -21.74870 | -46.06961 | 33387 ft | 425 kts | 197° |
| 2026-05-08 14:11 | -21.77764 | -46.07688 | 32950 ft | 425 kts | 197° |
| 2026-05-08 14:11 | -21.80672 | -46.08422 | 32446 ft | 438 kts | 197° |
| 2026-05-08 14:11 | -21.83698 | -46.09189 | 31867 ft | 448 kts | 197° |
| 2026-05-08 14:12 | -21.86728 | -46.09954 | 31282 ft | 447 kts | 197° |
| 2026-05-08 14:12 | -21.89729 | -46.10708 | 30697 ft | 445 kts | 197° |
| 2026-05-08 14:12 | -21.92772 | -46.11470 | 30097 ft | 442 kts | 197° |
| 2026-05-08 14:12 | -21.95729 | -46.12210 | 29513 ft | 440 kts | 198° |
| 2026-05-08 14:13 | -21.98721 | -46.12960 | 28919 ft | 437 kts | 198° |
| 2026-05-08 14:13 | -22.01657 | -46.13697 | 28326 ft | 435 kts | 197° |
| 2026-05-08 14:13 | -22.04629 | -46.14444 | 27724 ft | 432 kts | 197° |
| 2026-05-08 14:13 | -22.07527 | -46.15174 | 27134 ft | 430 kts | 197° |
| 2026-05-08 14:14 | -22.10448 | -46.15911 | 26539 ft | 427 kts | 197° |
| 2026-05-08 14:14 | -22.13331 | -46.16640 | 25950 ft | 425 kts | 197° |
| 2026-05-08 14:14 | -22.16182 | -46.17361 | 25363 ft | 423 kts | 197° |
| 2026-05-08 14:14 | -22.19040 | -46.18084 | 24778 ft | 421 kts | 197° |
| 2026-05-08 14:15 | -22.21895 | -46.18807 | 24193 ft | 419 kts | 197° |
| 2026-05-08 14:15 | -22.24711 | -46.19519 | 23611 ft | 417 kts | 197° |
| 2026-05-08 14:15 | -22.27538 | -46.20235 | 23022 ft | 415 kts | 196° |
| 2026-05-08 14:15 | -22.30336 | -46.20943 | 22456 ft | 413 kts | 196° |
| 2026-05-08 14:16 | -22.33133 | -46.21612 | 22173 ft | 404 kts | 194° |
| 2026-05-08 14:16 | -22.35848 | -46.22125 | 22010 ft | 393 kts | 192° |
| 2026-05-08 14:16 | -22.38553 | -46.22540 | 21489 ft | 393 kts | 190° |
| 2026-05-08 14:16 | -22.41260 | -46.22916 | 20905 ft | 394 kts | 190° |
| 2026-05-08 14:17 | -22.43989 | -46.23293 | 20343 ft | 393 kts | 190° |
| 2026-05-08 14:17 | -22.46699 | -46.23678 | 19794 ft | 393 kts | 190° |
| 2026-05-08 14:17 | -22.49414 | -46.24077 | 19249 ft | 392 kts | 190° |
| 2026-05-08 14:17 | -22.52110 | -46.24482 | 18689 ft | 391 kts | 190° |
| 2026-05-08 14:18 | -22.54796 | -46.24892 | 18214 ft | 388 kts | 190° |
| 2026-05-08 14:18 | -22.57418 | -46.25293 | 18203 ft | 371 kts | 190° |
| 2026-05-08 14:18 | -22.59934 | -46.25679 | 18204 ft | 369 kts | 191° |
| 2026-05-08 14:18 | -22.62519 | -46.26083 | 18199 ft | 375 kts | 191° |
| 2026-05-08 14:19 | -22.65100 | -46.26487 | 18190 ft | 374 kts | 191° |
| 2026-05-08 14:19 | -22.67669 | -46.26889 | 18128 ft | 375 kts | 191° |
| 2026-05-08 14:19 | -22.70270 | -46.27294 | 17777 ft | 373 kts | 190° |
| 2026-05-08 14:19 | -22.72843 | -46.27694 | 17289 ft | 372 kts | 190° |
| 2026-05-08 14:20 | -22.75380 | -46.28100 | 16769 ft | 372 kts | 192° |
| 2026-05-08 14:20 | -22.77907 | -46.28676 | 16255 ft | 369 kts | 198° |
| 2026-05-08 14:20 | -22.80262 | -46.29639 | 16169 ft | 353 kts | 208° |
| 2026-05-08 14:20 | -22.82435 | -46.30878 | 16167 ft | 354 kts | 213° |
| 2026-05-08 14:21 | -22.84577 | -46.32259 | 16158 ft | 357 kts | 214° |
| 2026-05-08 14:21 | -22.86674 | -46.33638 | 16151 ft | 356 kts | 214° |
| 2026-05-08 14:21 | -22.88808 | -46.35017 | 16088 ft | 354 kts | 213° |
| 2026-05-08 14:21 | -22.90945 | -46.36369 | 15686 ft | 352 kts | 213° |
| 2026-05-08 14:22 | -22.93043 | -46.37679 | 15147 ft | 354 kts | 213° |
| 2026-05-08 14:22 | -22.95201 | -46.39019 | 14616 ft | 354 kts | 212° |
| 2026-05-08 14:22 | -22.97339 | -46.40344 | 14094 ft | 355 kts | 213° |
| 2026-05-08 14:22 | -22.99478 | -46.41669 | 13577 ft | 355 kts | 213° |
| 2026-05-08 14:23 | -23.01615 | -46.42995 | 13065 ft | 354 kts | 212° |
| 2026-05-08 14:23 | -23.03748 | -46.44319 | 12547 ft | 354 kts | 213° |
| 2026-05-08 14:23 | -23.05885 | -46.45648 | 12031 ft | 354 kts | 213° |
| 2026-05-08 14:23 | -23.08034 | -46.46984 | 11514 ft | 353 kts | 213° |
| 2026-05-08 14:24 | -23.10163 | -46.48309 | 11002 ft | 352 kts | 213° |
| 2026-05-08 14:24 | -23.12263 | -46.49615 | 10521 ft | 350 kts | 213° |
| 2026-05-08 14:24 | -23.14366 | -46.50922 | 10270 ft | 340 kts | 213° |
| 2026-05-08 14:24 | -23.16386 | -46.52175 | 10083 ft | 329 kts | 214° |
| 2026-05-08 14:25 | -23.18375 | -46.53413 | 9638 ft | 328 kts | 214° |
| 2026-05-08 14:25 | -23.20327 | -46.54633 | 9222 ft | 326 kts | 214° |
| 2026-05-08 14:25 | -23.22254 | -46.55878 | 8971 ft | 318 kts | 216° |
| 2026-05-08 14:25 | -23.24123 | -46.57185 | 8613 ft | 314 kts | 218° |
| 2026-05-08 14:26 | -23.25922 | -46.58497 | 8222 ft | 312 kts | 219° |
| 2026-05-08 14:26 | -23.27707 | -46.59799 | 8100 ft | 300 kts | 218° |
| 2026-05-08 14:26 | -23.29386 | -46.61005 | 8096 ft | 285 kts | 219° |
| 2026-05-08 14:26 | -23.31035 | -46.62181 | 7924 ft | 279 kts | 218° |
| 2026-05-08 14:27 | -23.32669 | -46.63350 | 7589 ft | 285 kts | 219° |
| 2026-05-08 14:27 | -23.34344 | -46.64550 | 7212 ft | 288 kts | 218° |
| 2026-05-08 14:27 | -23.36026 | -46.65750 | 6821 ft | 289 kts | 219° |
| 2026-05-08 14:27 | -23.37718 | -46.66953 | 6412 ft | 291 kts | 219° |
| 2026-05-08 14:28 | -23.39440 | -46.68104 | 6200 ft | 288 kts | 213° |
| 2026-05-08 14:28 | -23.41312 | -46.68765 | 6107 ft | 286 kts | 188° |
| 2026-05-08 14:28 | -23.43271 | -46.68470 | 5901 ft | 286 kts | 158° |
| 2026-05-08 14:28 | -23.44915 | -46.67284 | 5371 ft | 286 kts | 130° |
| 2026-05-08 14:29 | -23.46034 | -46.65530 | 4833 ft | 280 kts | 117° |
| 2026-05-08 14:29 | -23.46943 | -46.63721 | 4603 ft | 263 kts | 110° |
| 2026-05-08 14:29 | -23.47383 | -46.61877 | 4467 ft | 240 kts | 86° |
| 2026-05-08 14:29 | -23.47107 | -46.60227 | 4453 ft | 206 kts | 64° |
| 2026-05-08 14:30 | -23.46616 | -46.58803 | 4460 ft | 197 kts | 64° |
| 2026-05-08 14:30 | -23.46232 | -46.57409 | 4141 ft | 187 kts | 68° |
| 2026-05-08 14:30 | -23.45889 | -46.56088 | 3822 ft | 179 kts | 68° |
| 2026-05-08 14:30 | -23.45543 | -46.54823 | 3577 ft | 170 kts | 68° |
| 2026-05-08 14:31 | -23.45219 | -46.53620 | 3373 ft | 160 kts | 68° |
| 2026-05-08 14:31 | -23.44930 | -46.52494 | 3205 ft | 151 kts | 70° |
| 2026-05-08 14:31 | -23.44632 | -46.51365 | 2959 ft | 157 kts | 68° |
| 2026-05-08 14:32 | -23.44018 | -46.49178 | 2578 ft | 144 kts | 70° |
| 2026-05-08 14:32 | -23.43744 | -46.48185 | 2464 ft | 121 kts | 70° |
| 2026-05-08 14:32 | -23.43584 | -46.47606 | 2469 ft | 54 kts | 74° |
| 2026-05-08 14:32 | -23.43494 | -46.47263 | 2466 ft | 43 kts | 76° |
| 2026-05-08 14:33 | -23.43410 | -46.47014 | 2463 ft | 27 kts | 63° |
| 2026-05-08 14:33 | -23.43312 | -46.46872 | 2457 ft | 21 kts | 46° |
| 2026-05-08 14:33 | -23.43211 | -46.46768 | 2455 ft | 18 kts | 43° |
| 2026-05-08 14:33 | -23.43132 | -46.46717 | 2452 ft | 13 kts | 1° |
| 2026-05-08 14:34 | -23.43028 | -46.46740 | 2450 ft | 16 kts | 344° |
| 2026-05-08 14:34 | -23.42919 | -46.46772 | 2447 ft | 15 kts | 345° |
| 2026-05-08 14:34 | -23.42818 | -46.46806 | 2446 ft | 14 kts | 343° |
| 2026-05-08 14:34 | -23.42778 | -46.46878 | 2445 ft | 12 kts | 255° |
| 2026-05-08 14:35 | -23.42801 | -46.46964 | 2445 ft | 11 kts | 253° |
| 2026-05-08 14:35 | -23.42828 | -46.47060 | 2445 ft | 14 kts | 253° |
| 2026-05-08 14:35 | -23.42857 | -46.47171 | 2446 ft | 16 kts | 253° |
| 2026-05-08 14:35 | -23.42889 | -46.47290 | 2446 ft | 17 kts | 255° |
| 2026-05-08 14:36 | -23.42923 | -46.47414 | 2447 ft | 17 kts | 254° |
| 2026-05-08 14:36 | -23.42958 | -46.47541 | 2447 ft | 17 kts | 253° |
| 2026-05-08 14:36 | -23.42992 | -46.47665 | 2448 ft | 16 kts | 254° |
| 2026-05-08 14:36 | -23.43024 | -46.47782 | 2448 ft | 15 kts | 253° |
| 2026-05-08 14:37 | -23.43055 | -46.47903 | 2448 ft | 17 kts | 254° |
| 2026-05-08 14:37 | -23.43090 | -46.48028 | 2447 ft | 15 kts | 251° |
| 2026-05-08 14:37 | -23.43086 | -46.48119 | 2447 ft | 11 kts | 327° |
| 2026-05-08 14:37 | -23.43015 | -46.48133 | 2447 ft | 9 kts | 357° |
| 2026-05-08 14:38 | -23.42963 | -46.48151 | 2447 ft | 7 kts | 315° |
| 2026-05-08 14:38 | -23.42941 | -46.48194 | 2447 ft | 5 kts | 294° |
| 2026-05-08 14:38 | -23.42929 | -46.48224 | 2447 ft | 3 kts | 295° |
| 2026-05-08 14:38 | -23.42927 | -46.48228 | 2447 ft | 0 kts | 295° |